Time;durP1;ratioP1;P1;durP2;ratioP2;P2;SDS_P1;SDS_P2;PMS_P1;PMS_P2;Temp;Humidity;BMP_temperature;BMP_pressure;BME280_temperature;BME280_humidity;BME280_pressure;Samples;Min_cycle;Max_cycle;Signal;HPM_P1;HPM_P2
2023/04/16 00:00:16;;;;;;;1.40;1.30;;;9.20;80.50;;;;;;4952526;28;20034;-64
2023/04/16 00:02:42;;;;;;;1.05;1.02;;;9.20;80.60;;;;;;4951088;28;20031;-64
2023/04/16 00:05:08;;;;;;;1.25;1.15;;;9.10;80.50;;;;;;4953572;28;20035;-64
2023/04/16 00:07:33;;;;;;;2.30;1.33;;;9.10;80.50;;;;;;4952476;28;20332;-64
2023/04/16 00:09:59;;;;;;;1.88;1.10;;;9.10;80.80;;;;;;4952265;28;20348;-64
2023/04/16 00:12:24;;;;;;;1.48;1.35;;;9.10;80.80;;;;;;4953392;28;20042;-64
2023/04/16 00:14:50;;;;;;;1.50;1.40;;;9.10;80.80;;;;;;4952250;28;20121;-64
2023/04/16 00:17:15;;;;;;;2.35;1.30;;;9.10;80.90;;;;;;4951831;28;20090;-64
2023/04/16 00:19:41;;;;;;;1.40;1.27;;;9.10;81.00;;;;;;4952432;28;20514;-64
2023/04/16 00:22:06;;;;;;;1.20;1.10;;;9.10;80.90;;;;;;4951797;28;20062;-64
2023/04/16 00:24:32;;;;;;;1.30;1.20;;;9.10;80.80;;;;;;4954141;28;20133;-64
2023/04/16 00:26:58;;;;;;;1.30;1.20;;;9.10;81.00;;;;;;4952681;28;20039;-62
2023/04/16 00:29:23;;;;;;;1.30;1.20;;;9.10;81.10;;;;;;4952898;28;20137;-64
2023/04/16 00:31:49;;;;;;;1.20;1.10;;;9.10;81.00;;;;;;4957161;28;20462;-64
2023/04/16 00:34:14;;;;;;;1.40;1.30;;;9.10;81.20;;;;;;4954822;28;20042;-64
2023/04/16 00:36:40;;;;;;;1.48;1.38;;;9.10;81.10;;;;;;4954271;28;20031;-64
2023/04/16 00:39:05;;;;;;;1.40;1.30;;;9.10;81.00;;;;;;4959014;28;20328;-64
2023/04/16 00:41:31;;;;;;;1.35;1.25;;;9.10;81.10;;;;;;4954830;28;20498;-64
2023/04/16 00:43:56;;;;;;;1.48;1.38;;;9.10;81.30;;;;;;4956466;28;20453;-63
2023/04/16 00:46:23;;;;;;;1.42;1.33;;;9.10;81.40;;;;;;4960455;28;20038;-64
2023/04/16 00:48:51;;;;;;;1.65;1.20;;;9.10;81.20;;;;;;4961074;28;20047;-64
2023/04/16 00:51:18;;;;;;;1.50;1.40;;;9.10;81.30;;;;;;4961821;28;20086;-64
2023/04/16 00:53:45;;;;;;;1.48;1.00;;;9.10;81.30;;;;;;4961773;28;20578;-64
2023/04/16 00:56:11;;;;;;;1.30;1.20;;;9.10;81.30;;;;;;4961424;28;20094;-64
2023/04/16 00:58:38;;;;;;;1.35;1.25;;;9.10;81.20;;;;;;4961051;28;20043;-64
2023/04/16 01:01:04;;;;;;;1.30;1.20;;;9.10;81.30;;;;;;4958457;28;20031;-64
2023/04/16 01:03:44;;;;;;;1.15;1.05;;;9.10;81.30;;;;;;4954759;28;20606;-63
2023/04/16 01:06:11;;;;;;;1.00;1.00;;;9.10;82.20;;;;;;4957544;28;20130;-64
2023/04/16 01:08:36;;;;;;;1.20;0.90;;;9.10;81.30;;;;;;4954332;28;20066;-63
2023/04/16 01:11:02;;;;;;;1.10;1.00;;;9.10;81.50;;;;;;4958896;28;20070;-64
2023/04/16 01:13:29;;;;;;;1.10;1.10;;;9.10;81.60;;;;;;4956066;28;20039;-64
2023/04/16 01:15:54;;;;;;;0.80;0.80;;;9.10;81.50;;;;;;4954084;28;20058;-64
2023/04/16 01:18:21;;;;;;;1.10;1.10;;;9.10;81.40;;;;;;4956609;28;20027;-64
2023/04/16 01:20:47;;;;;;;1.10;1.00;;;9.10;81.50;;;;;;4955267;28;20035;-64
2023/04/16 01:23:13;;;;;;;0.90;0.90;;;9.10;81.50;;;;;;4955031;28;20030;-64
2023/04/16 01:25:39;;;;;;;0.98;0.98;;;9.10;81.50;;;;;;4955875;28;20030;-63
2023/04/16 01:28:05;;;;;;;0.98;0.98;;;9.10;81.50;;;;;;4954058;28;20043;-64
2023/04/16 01:30:31;;;;;;;1.17;1.10;;;9.10;82.40;;;;;;4932148;28;20411;-64
2023/04/16 01:32:56;;;;;;;1.58;0.93;;;9.10;81.50;;;;;;4955562;28;20055;-64
2023/04/16 01:35:23;;;;;;;1.25;1.15;;;9.10;81.60;;;;;;4953241;28;20039;-64
2023/04/16 01:37:49;;;;;;;1.00;0.98;;;9.10;81.60;;;;;;4952081;28;20364;-64
2023/04/16 01:40:15;;;;;;;1.08;0.80;;;9.10;81.60;;;;;;4958121;28;20090;-64
2023/04/16 01:42:40;;;;;;;0.80;0.80;;;9.10;81.60;;;;;;4953557;28;20043;-65
2023/04/16 01:45:06;;;;;;;0.90;0.90;;;9.10;81.70;;;;;;4956011;28;20511;-65
2023/04/16 01:47:32;;;;;;;1.00;1.00;;;9.10;81.70;;;;;;4954642;28;20041;-64
2023/04/16 01:49:59;;;;;;;0.80;0.80;;;9.10;81.80;;;;;;4954170;28;20051;-64
2023/04/16 01:52:24;;;;;;;0.80;0.80;;;9.00;81.90;;;;;;4953643;28;20114;-64
2023/04/16 01:54:50;;;;;;;1.10;0.90;;;9.10;82.00;;;;;;4953214;28;20061;-64
2023/04/16 01:57:15;;;;;;;1.30;0.90;;;9.10;82.00;;;;;;4956946;28;20469;-64
2023/04/16 01:59:41;;;;;;;0.75;0.75;;;9.10;82.00;;;;;;4955042;28;20048;-62
2023/04/16 02:02:12;;;;;;;0.80;0.80;;;9.10;82.00;;;;;;4936354;28;20042;-64
2023/04/16 02:04:42;;;;;;;0.90;0.90;;;9.10;82.40;;;;;;4954463;28;20070;-63
2023/04/16 02:07:08;;;;;;;1.05;0.90;;;9.10;82.20;;;;;;4954058;28;20137;-64
2023/04/16 02:09:35;;;;;;;1.10;1.00;;;9.10;82.00;;;;;;4953766;28;20407;-64
2023/04/16 02:12:04;;;;;;;1.05;0.95;;;9.10;82.10;;;;;;4955190;28;20130;-64
2023/04/16 02:14:31;;;;;;;0.95;0.90;;;9.10;82.10;;;;;;4952975;28;20396;-63
2023/04/16 02:16:56;;;;;;;1.10;1.00;;;9.10;82.00;;;;;;4953318;28;20050;-64
2023/04/16 02:19:22;;;;;;;1.00;1.00;;;9.10;82.10;;;;;;4953898;28;20042;-64
2023/04/16 02:21:50;;;;;;;1.60;1.10;;;9.10;82.20;;;;;;4956534;28;20042;-64
2023/04/16 02:24:15;;;;;;;1.05;0.82;;;9.10;82.30;;;;;;4956495;28;20496;-64
2023/04/16 02:26:41;;;;;;;1.00;0.90;;;9.10;82.20;;;;;;4956130;28;20098;-63
2023/04/16 02:29:06;;;;;;;1.23;0.90;;;9.10;82.40;;;;;;4955308;28;20043;-64
2023/04/16 02:31:32;;;;;;;2.72;0.90;;;9.10;82.30;;;;;;4955955;28;20034;-63
2023/04/16 02:33:58;;;;;;;0.82;0.82;;;9.10;82.40;;;;;;4954817;28;20039;-64
2023/04/16 02:36:23;;;;;;;1.10;1.00;;;9.10;82.40;;;;;;4952965;28;20042;-64
2023/04/16 02:38:49;;;;;;;1.67;0.88;;;9.20;82.60;;;;;;4954426;28;20039;-64
2023/04/16 02:41:14;;;;;;;1.30;1.00;;;9.20;82.50;;;;;;4953827;28;20049;-64
2023/04/16 02:43:40;;;;;;;0.80;0.80;;;9.20;82.40;;;;;;4956336;28;21081;-64
2023/04/16 02:46:05;;;;;;;1.40;1.30;;;9.10;82.60;;;;;;4952736;28;20050;-63
2023/04/16 02:48:31;;;;;;;1.13;1.02;;;9.10;82.70;;;;;;4954477;28;20105;-64
2023/04/16 02:50:57;;;;;;;1.08;0.98;;;9.10;82.70;;;;;;4953713;28;20412;-64
2023/04/16 02:53:22;;;;;;;1.08;1.02;;;9.10;82.90;;;;;;4953038;28;20421;-64
2023/04/16 02:55:52;;;;;;;0.90;0.90;;;9.20;83.10;;;;;;4953104;28;20085;-64
2023/04/16 02:58:19;;;;;;;0.90;0.90;;;9.10;83.30;;;;;;4939585;28;20042;-64
2023/04/16 03:00:45;;;;;;;0.73;0.73;;;9.10;83.00;;;;;;4953366;28;20034;-64
2023/04/16 03:03:11;;;;;;;0.90;0.90;;;9.10;83.10;;;;;;4953577;28;20045;-64
2023/04/16 03:05:36;;;;;;;0.77;0.77;;;9.10;83.10;;;;;;4953275;28;20238;-64
2023/04/16 03:08:05;;;;;;;1.77;1.00;;;9.10;83.30;;;;;;4951790;28;20123;-64
2023/04/16 03:10:31;;;;;;;0.90;0.85;;;9.10;83.50;;;;;;4954441;28;20046;-63
2023/04/16 03:12:57;;;;;;;1.15;0.77;;;9.10;83.40;;;;;;4952677;28;20039;-64
2023/04/16 03:15:23;;;;;;;0.90;0.90;;;9.10;83.40;;;;;;4953929;28;20050;-64
2023/04/16 03:17:48;;;;;;;0.70;0.70;;;9.10;83.40;;;;;;4953929;28;20043;-64
2023/04/16 03:20:15;;;;;;;0.82;0.82;;;9.10;83.40;;;;;;4952205;28;20309;-64
2023/04/16 03:22:41;;;;;;;0.90;0.90;;;9.10;83.50;;;;;;4953437;28;20039;-64
2023/04/16 03:25:08;;;;;;;0.80;0.80;;;9.10;83.60;;;;;;4954281;28;20068;-64
2023/04/16 03:27:34;;;;;;;2.00;0.77;;;9.10;83.60;;;;;;4953304;28;20035;-63
2023/04/16 03:30:00;;;;;;;1.60;0.80;;;9.10;83.60;;;;;;4954782;28;20466;-64
2023/04/16 03:32:26;;;;;;;4.00;2.38;;;9.10;83.80;;;;;;4951959;28;20403;-64
2023/04/16 03:34:51;;;;;;;1.15;0.90;;;9.10;83.80;;;;;;4951817;28;20102;-64
2023/04/16 03:37:17;;;;;;;5.55;4.68;;;9.10;83.80;;;;;;4952494;28;20069;-64
2023/04/16 03:39:42;;;;;;;1.13;1.02;;;9.10;83.80;;;;;;4951820;28;20133;-64
2023/04/16 03:42:08;;;;;;;1.30;1.20;;;9.10;83.90;;;;;;4956289;28;20047;-64
2023/04/16 03:44:34;;;;;;;1.40;1.30;;;9.10;83.80;;;;;;4952273;28;20146;-64
2023/04/16 03:46:59;;;;;;;1.45;1.20;;;9.10;84.10;;;;;;4952026;28;20065;-64
2023/04/16 03:49:25;;;;;;;1.30;1.20;;;9.10;84.00;;;;;;4950919;28;20499;-64
2023/04/16 03:51:51;;;;;;;1.42;1.30;;;9.10;84.10;;;;;;4951601;28;20047;-63
2023/04/16 03:54:16;;;;;;;1.02;0.93;;;9.10;84.10;;;;;;4952605;28;20081;-64
2023/04/16 03:56:42;;;;;;;0.93;0.93;;;9.00;84.30;;;;;;4951129;28;20046;-64
2023/04/16 03:59:08;;;;;;;0.90;0.90;;;9.00;84.30;;;;;;4953365;28;20533;-64
2023/04/16 04:01:34;;;;;;;0.80;0.80;;;9.10;84.50;;;;;;4951301;28;20404;-64
2023/04/16 04:04:00;;;;;;;1.25;0.80;;;9.00;84.50;;;;;;4952249;28;20027;-64
2023/04/16 04:06:26;;;;;;;0.80;0.80;;;9.00;84.50;;;;;;4951057;28;20047;-64
2023/04/16 04:08:52;;;;;;;1.20;1.00;;;9.00;84.50;;;;;;4956714;28;20500;-64
2023/04/16 04:11:18;;;;;;;0.90;0.90;;;9.00;84.60;;;;;;4959820;28;20035;-64
2023/04/16 04:13:43;;;;;;;0.75;0.73;;;9.00;84.60;;;;;;4957270;28;20443;-64
2023/04/16 04:16:09;;;;;;;0.82;0.80;;;9.00;84.70;;;;;;4960198;28;20043;-64
2023/04/16 04:18:34;;;;;;;3.17;0.95;;;9.00;84.60;;;;;;4960034;28;20024;-64
2023/04/16 04:21:07;;;;;;;0.95;0.90;;;9.00;84.70;;;;;;4960662;28;20563;-64
2023/04/16 04:23:34;;;;;;;0.80;0.80;;;9.00;84.90;;;;;;4959865;28;20031;-64
2023/04/16 04:26:02;;;;;;;1.05;1.00;;;9.00;84.90;;;;;;4956578;28;20038;-64
2023/04/16 04:28:29;;;;;;;1.40;1.10;;;9.00;84.80;;;;;;4954065;28;20455;-64
2023/04/16 04:30:55;;;;;;;0.80;0.80;;;9.00;85.00;;;;;;4959621;28;20035;-64
2023/04/16 04:33:20;;;;;;;1.05;1.05;;;9.00;84.90;;;;;;4958018;28;20101;-64
2023/04/16 04:35:46;;;;;;;0.70;0.70;;;9.00;85.00;;;;;;4954743;28;20043;-64
2023/04/16 04:38:12;;;;;;;1.40;1.10;;;9.00;85.10;;;;;;4956329;28;20035;-64
2023/04/16 04:40:37;;;;;;;1.27;1.10;;;9.00;85.00;;;;;;4955357;28;20031;-64
2023/04/16 04:43:03;;;;;;;1.00;1.00;;;8.90;85.00;;;;;;4953123;28;20415;-64
2023/04/16 04:45:29;;;;;;;0.80;0.80;;;9.00;85.10;;;;;;4957407;28;20054;-64
2023/04/16 04:47:54;;;;;;;1.83;1.00;;;9.00;85.20;;;;;;4955700;28;20039;-65
2023/04/16 04:50:20;;;;;;;0.90;0.90;;;9.00;85.20;;;;;;4956276;28;20615;-64
2023/04/16 04:52:46;;;;;;;1.00;1.00;;;9.00;85.20;;;;;;4953774;28;20529;-64
2023/04/16 04:55:14;;;;;;;1.10;1.00;;;9.00;86.00;;;;;;4955856;28;20118;-64
2023/04/16 04:57:40;;;;;;;1.30;1.20;;;9.00;85.30;;;;;;4955449;28;20399;-64
2023/04/16 05:00:06;;;;;;;1.00;1.00;;;9.00;85.30;;;;;;4956858;28;20047;-64
2023/04/16 05:02:32;;;;;;;1.05;1.02;;;9.00;85.30;;;;;;4955748;28;20042;-64
2023/04/16 05:04:58;;;;;;;0.90;0.90;;;9.00;85.40;;;;;;4955118;28;20035;-64
2023/04/16 05:07:23;;;;;;;0.90;0.90;;;9.00;85.40;;;;;;4954555;28;20043;-64
2023/04/16 05:09:49;;;;;;;1.10;1.00;;;9.00;85.50;;;;;;4954409;28;20430;-64
2023/04/16 05:12:15;;;;;;;1.30;1.20;;;9.00;85.50;;;;;;4955961;28;20090;-64
2023/04/16 05:14:41;;;;;;;0.88;0.88;;;9.10;85.70;;;;;;4955339;28;20059;-64
2023/04/16 05:17:06;;;;;;;0.80;0.80;;;9.10;85.70;;;;;;4955793;28;20074;-64
2023/04/16 05:19:32;;;;;;;1.38;1.27;;;9.00;85.70;;;;;;4955697;28;20463;-64
2023/04/16 05:21:58;;;;;;;0.80;0.80;;;9.00;85.60;;;;;;4957954;28;20089;-64
2023/04/16 05:24:24;;;;;;;0.90;0.90;;;9.00;85.70;;;;;;4953947;28;20101;-64
2023/04/16 05:26:50;;;;;;;0.90;0.90;;;9.10;85.90;;;;;;4954978;28;20752;-64
2023/04/16 05:29:15;;;;;;;0.70;0.70;;;9.10;85.80;;;;;;4956091;28;20057;-64
2023/04/16 05:31:41;;;;;;;0.77;0.77;;;9.10;86.00;;;;;;4957458;28;20062;-64
2023/04/16 05:34:06;;;;;;;0.63;0.63;;;9.00;85.90;;;;;;4954726;28;20129;-64
2023/04/16 05:36:32;;;;;;;3.80;0.85;;;9.10;85.90;;;;;;4954836;28;20039;-64
2023/04/16 05:38:58;;;;;;;0.73;0.73;;;9.10;85.90;;;;;;4954882;28;20069;-64
2023/04/16 05:41:23;;;;;;;1.00;0.95;;;9.00;86.00;;;;;;4955878;28;20050;-64
2023/04/16 05:43:49;;;;;;;0.80;0.80;;;9.10;86.00;;;;;;4954000;28;20057;-64
2023/04/16 05:46:14;;;;;;;0.80;0.80;;;9.10;86.10;;;;;;4954625;28;20113;-64
2023/04/16 05:48:40;;;;;;;1.15;1.05;;;9.10;86.10;;;;;;4955012;28;20133;-65
2023/04/16 05:51:06;;;;;;;0.90;0.90;;;9.10;86.20;;;;;;4955510;28;20077;-65
2023/04/16 05:53:31;;;;;;;0.80;0.80;;;9.10;86.10;;;;;;4953087;28;20487;-64
2023/04/16 05:55:57;;;;;;;0.60;0.60;;;9.10;86.10;;;;;;4952912;28;20063;-64
2023/04/16 05:58:22;;;;;;;1.73;0.80;;;9.10;86.40;;;;;;4954582;28;20077;-64
2023/04/16 06:00:48;;;;;;;0.90;0.80;;;9.10;86.20;;;;;;4954342;28;20097;-65
2023/04/16 06:03:13;;;;;;;0.80;0.80;;;9.20;86.20;;;;;;4954675;28;20024;-64
2023/04/16 06:05:39;;;;;;;0.60;0.60;;;9.20;86.20;;;;;;4954592;28;20038;-65
2023/04/16 06:08:05;;;;;;;1.83;1.13;;;9.20;86.20;;;;;;4953071;28;20045;-64
2023/04/16 06:10:30;;;;;;;0.80;0.80;;;9.20;86.20;;;;;;4953922;28;20050;-64
2023/04/16 06:12:56;;;;;;;0.90;0.90;;;9.20;86.10;;;;;;4955363;28;20054;-65
2023/04/16 06:15:21;;;;;;;0.82;0.82;;;9.20;86.20;;;;;;4954496;28;20035;-65
2023/04/16 06:17:48;;;;;;;0.80;0.80;;;9.30;86.30;;;;;;4956027;28;20585;-65
2023/04/16 06:20:14;;;;;;;1.27;1.17;;;9.20;86.40;;;;;;4954875;28;20042;-64
2023/04/16 06:22:40;;;;;;;1.00;0.90;;;9.30;86.40;;;;;;4951897;28;20057;-64
2023/04/16 06:25:06;;;;;;;0.82;0.70;;;9.30;86.50;;;;;;4956323;28;20113;-65
2023/04/16 06:27:31;;;;;;;0.60;0.60;;;9.30;86.70;;;;;;4943874;28;20035;-65
2023/04/16 06:29:57;;;;;;;0.80;0.80;;;9.30;86.60;;;;;;4948095;28;20047;-64
2023/04/16 06:32:23;;;;;;;0.98;0.70;;;9.30;86.50;;;;;;4952093;28;20034;-64
2023/04/16 06:34:48;;;;;;;0.70;0.70;;;9.30;86.60;;;;;;4947855;28;20943;-64
2023/04/16 06:37:15;;;;;;;0.80;0.80;;;9.30;86.70;;;;;;4940500;28;20161;-64
2023/04/16 06:39:40;;;;;;;1.40;1.30;;;9.30;86.60;;;;;;4942049;28;20039;-65
2023/04/16 06:42:06;;;;;;;1.98;1.63;;;9.40;86.70;;;;;;4944226;28;21164;-65
2023/04/16 06:44:32;;;;;;;1.75;1.58;;;9.40;86.70;;;;;;4952138;28;20249;-65
2023/04/16 06:46:57;;;;;;;0.80;0.80;;;9.40;86.70;;;;;;4952504;28;20042;-65
2023/04/16 06:49:23;;;;;;;0.75;0.75;;;9.40;86.70;;;;;;4948817;28;20043;-66
2023/04/16 06:51:49;;;;;;;0.73;0.70;;;9.50;86.80;;;;;;4933054;28;20040;-65
2023/04/16 06:54:15;;;;;;;1.00;0.60;;;9.50;86.80;;;;;;4948372;28;20851;-65
2023/04/16 06:56:41;;;;;;;0.50;0.50;;;9.50;86.70;;;;;;4954093;28;20047;-65
2023/04/16 06:59:06;;;;;;;0.68;0.68;;;9.60;86.80;;;;;;4955468;28;20561;-65
2023/04/16 07:01:32;;;;;;;0.60;0.50;;;9.50;86.70;;;;;;4950278;28;20053;-65
2023/04/16 07:03:58;;;;;;;0.82;0.60;;;9.60;86.90;;;;;;4950207;28;20117;-65
2023/04/16 07:06:24;;;;;;;0.60;0.50;;;9.60;86.80;;;;;;4952923;28;20046;-65
2023/04/16 07:08:49;;;;;;;0.60;0.50;;;9.60;86.80;;;;;;4949050;28;20047;-66
2023/04/16 07:11:15;;;;;;;0.50;0.50;;;9.60;86.90;;;;;;4952506;28;20031;-63
2023/04/16 07:13:40;;;;;;;0.63;0.60;;;9.60;86.90;;;;;;4950981;28;20125;-65
2023/04/16 07:16:06;;;;;;;0.70;0.70;;;9.50;86.70;;;;;;4953596;28;20039;-63
2023/04/16 07:18:32;;;;;;;0.60;0.60;;;9.50;86.90;;;;;;4955081;28;20039;-64
2023/04/16 07:20:58;;;;;;;0.70;0.70;;;9.60;87.00;;;;;;4955032;28;20039;-63
2023/04/16 07:23:23;;;;;;;0.90;0.70;;;9.60;87.10;;;;;;4956207;28;20089;-63
2023/04/16 07:25:49;;;;;;;0.68;0.68;;;9.60;87.20;;;;;;4946741;28;20098;-63
2023/04/16 07:28:17;;;;;;;0.60;0.60;;;9.60;87.60;;;;;;4952003;28;20039;-64
2023/04/16 07:30:43;;;;;;;0.70;0.60;;;9.60;87.40;;;;;;4950119;28;21089;-64
2023/04/16 07:33:09;;;;;;;0.60;0.60;;;9.60;87.40;;;;;;4953788;28;20043;-63
2023/04/16 07:35:34;;;;;;;0.70;0.70;;;9.60;87.60;;;;;;4954604;28;20038;-64
2023/04/16 07:38:00;;;;;;;6.20;1.77;;;9.70;87.70;;;;;;4951007;28;20057;-66
2023/04/16 07:40:26;;;;;;;1.05;0.98;;;9.70;87.80;;;;;;4953127;28;20031;-64
2023/04/16 07:42:51;;;;;;;1.08;1.05;;;9.70;87.60;;;;;;4953576;28;20039;-65
2023/04/16 07:45:17;;;;;;;0.60;0.60;;;9.70;87.80;;;;;;4953344;28;20047;-66
2023/04/16 07:47:44;;;;;;;1.05;0.90;;;9.70;88.00;;;;;;4951948;28;20039;-65
2023/04/16 07:50:10;;;;;;;0.70;0.70;;;9.70;88.00;;;;;;4951103;28;20047;-64
2023/04/16 07:52:40;;;;;;;0.80;0.80;;;9.70;88.10;;;;;;4935462;28;20047;-64
2023/04/16 07:55:08;;;;;;;0.70;0.70;;;9.80;88.20;;;;;;4956172;28;20039;-64
2023/04/16 07:57:34;;;;;;;0.90;0.90;;;9.80;88.30;;;;;;4952540;28;20046;-64
2023/04/16 08:00:03;;;;;;;0.80;0.80;;;9.80;88.40;;;;;;4952102;28;20047;-64
2023/04/16 08:02:30;;;;;;;1.08;0.98;;;9.80;88.30;;;;;;4953396;28;20040;-63
2023/04/16 08:04:55;;;;;;;0.70;0.70;;;9.90;88.50;;;;;;4953385;28;22004;-63
2023/04/16 08:07:21;;;;;;;0.70;0.70;;;9.90;88.40;;;;;;4936616;28;20041;-64
2023/04/16 08:09:53;;;;;;;1.10;1.00;;;9.90;88.30;;;;;;4955969;28;20055;-63
2023/04/16 08:12:19;;;;;;;0.60;0.60;;;9.90;88.20;;;;;;4951822;28;20566;-63
2023/04/16 08:14:46;;;;;;;1.67;0.60;;;10.00;87.80;;;;;;4937709;28;20036;-63
2023/04/16 08:17:12;;;;;;;0.60;0.60;;;10.00;87.60;;;;;;4953559;28;20043;-63
2023/04/16 08:19:38;;;;;;;0.70;0.70;;;9.90;87.70;;;;;;4950590;28;20577;-65
2023/04/16 08:22:03;;;;;;;0.75;0.60;;;10.00;87.70;;;;;;4954311;28;20325;-63
2023/04/16 08:24:29;;;;;;;0.73;0.73;;;10.00;87.60;;;;;;4952836;28;20422;-63
2023/04/16 08:26:55;;;;;;;0.68;0.68;;;10.00;87.60;;;;;;4958022;28;20035;-64
2023/04/16 08:29:20;;;;;;;0.60;0.60;;;10.00;87.60;;;;;;4956379;28;20039;-63
2023/04/16 08:31:46;;;;;;;1.15;0.82;;;10.00;87.40;;;;;;4953563;28;20396;-64
2023/04/16 08:34:12;;;;;;;1.20;0.90;;;9.90;87.60;;;;;;4953068;28;20046;-65
2023/04/16 08:36:37;;;;;;;1.02;0.90;;;9.90;87.50;;;;;;4953473;28;20039;-64
2023/04/16 08:39:03;;;;;;;1.67;1.05;;;9.90;88.30;;;;;;4953883;28;20176;-64
2023/04/16 08:41:35;;;;;;;1.50;1.40;;;9.90;87.30;;;;;;4953515;28;20078;-64
2023/04/16 08:44:09;;;;;;;1.48;1.35;;;9.90;87.80;;;;;;4952238;28;21177;-64
2023/04/16 08:46:36;;;;;;;1.55;1.45;;;9.90;87.70;;;;;;4953469;28;20039;-64
2023/04/16 08:49:05;;;;;;;1.63;1.52;;;9.90;87.80;;;;;;4953638;28;20116;-64
2023/04/16 08:51:34;;;;;;;1.88;1.40;;;9.90;88.10;;;;;;4951695;28;20507;-64
2023/04/16 08:54:03;;;;;;;1.65;1.55;;;9.90;88.40;;;;;;4951168;28;20047;-65
2023/04/16 08:56:30;;;;;;;2.25;2.05;;;9.90;88.60;;;;;;4953098;28;20395;-67
2023/04/16 08:58:57;;;;;;;2.25;2.00;;;9.90;88.50;;;;;;4952615;28;20057;-64
2023/04/16 09:01:25;;;;;;;2.20;2.00;;;9.90;88.40;;;;;;4956551;28;20074;-64
2023/04/16 09:03:51;;;;;;;2.55;2.08;;;10.00;88.20;;;;;;4954945;28;20495;-65
2023/04/16 09:06:17;;;;;;;3.05;2.58;;;10.00;88.10;;;;;;4957864;28;20047;-64
2023/04/16 09:08:45;;;;;;;3.28;2.50;;;10.00;88.30;;;;;;4953351;28;20038;-64
2023/04/16 09:11:12;;;;;;;3.47;2.80;;;10.00;88.10;;;;;;4960111;28;20031;-64
2023/04/16 09:13:38;;;;;;;2.70;2.50;;;10.00;88.00;;;;;;4952027;28;20074;-64
2023/04/16 09:16:06;;;;;;;3.45;2.90;;;10.00;87.80;;;;;;4958110;28;20110;-64
2023/04/16 09:18:31;;;;;;;3.33;3.00;;;10.00;88.10;;;;;;4952593;28;20066;-64
2023/04/16 09:20:57;;;;;;;3.03;2.72;;;10.00;88.20;;;;;;4956531;28;20522;-64
2023/04/16 09:23:23;;;;;;;3.88;3.10;;;10.10;88.30;;;;;;4951360;28;20046;-64
2023/04/16 09:25:49;;;;;;;3.55;3.20;;;10.10;88.30;;;;;;4938797;28;20047;-64
2023/04/16 09:28:44;;;;;;;3.35;3.05;;;10.10;88.00;;;;;;4955682;28;20059;-64
2023/04/16 09:31:12;;;;;;;3.88;3.47;;;10.10;88.60;;;;;;4960750;28;20039;-64
2023/04/16 09:33:38;;;;;;;3.40;3.10;;;10.10;88.00;;;;;;4955807;28;20062;-63
2023/04/16 09:36:04;;;;;;;3.85;3.22;;;10.10;88.20;;;;;;4959417;28;20070;-64
2023/04/16 09:38:52;;;;;;;4.15;3.40;;;10.20;88.20;;;;;;4955842;28;20031;-63
2023/04/16 09:41:19;;;;;;;4.95;3.47;;;10.20;88.60;;;;;;4951825;28;20043;-64
2023/04/16 09:43:56;;;;;;;3.80;3.20;;;10.20;88.00;;;;;;4954683;28;20046;-64
2023/04/16 09:46:35;;;;;;;4.22;3.78;;;10.20;88.00;;;;;;4956246;28;20070;-66
2023/04/16 09:49:12;;;;;;;3.90;3.50;;;10.20;87.50;;;;;;4953737;28;20054;-64
2023/04/16 09:51:40;;;;;;;4.57;3.80;;;10.20;87.90;;;;;;4953276;28;20118;-65
2023/04/16 09:54:06;;;;;;;3.88;3.47;;;10.20;87.60;;;;;;4955397;28;20041;-64
2023/04/16 09:56:32;;;;;;;4.95;3.50;;;10.20;87.40;;;;;;4955533;28;20027;-66
2023/04/16 09:59:00;;;;;;;5.18;3.70;;;10.20;87.10;;;;;;4952739;28;20406;-64
2023/04/16 10:01:26;;;;;;;3.95;3.42;;;10.30;87.30;;;;;;4930722;28;20085;-64
2023/04/16 10:03:54;;;;;;;4.50;3.58;;;10.30;87.30;;;;;;4954473;28;20055;-65
2023/04/16 10:06:22;;;;;;;3.60;3.10;;;10.30;87.40;;;;;;4957837;28;20043;-64
2023/04/16 10:08:57;;;;;;;4.75;3.30;;;10.30;87.40;;;;;;4960307;28;20046;-64
2023/04/16 10:11:23;;;;;;;4.25;3.85;;;10.30;87.50;;;;;;4955781;28;20117;-64
2023/04/16 10:13:49;;;;;;;4.10;3.70;;;10.20;87.60;;;;;;4960722;28;20058;-64
2023/04/16 10:16:16;;;;;;;4.68;3.67;;;10.20;87.60;;;;;;4961787;28;20407;-64
2023/04/16 10:18:44;;;;;;;6.28;3.92;;;10.30;87.40;;;;;;4960986;28;20036;-64
2023/04/16 10:21:11;;;;;;;3.78;3.40;;;10.20;88.50;;;;;;4961139;28;20534;-64
2023/04/16 10:23:38;;;;;;;5.07;3.97;;;10.20;87.50;;;;;;4961213;28;20039;-64
2023/04/16 10:26:04;;;;;;;4.40;3.95;;;10.20;87.90;;;;;;4960256;28;20499;-64
2023/04/16 10:28:30;;;;;;;5.05;3.70;;;10.20;88.00;;;;;;4959778;28;20050;-64
2023/04/16 10:30:57;;;;;;;4.90;3.85;;;10.20;88.00;;;;;;4960983;28;20742;-64
2023/04/16 10:33:26;;;;;;;4.68;3.83;;;10.20;87.80;;;;;;4961700;28;20035;-64
2023/04/16 10:36:06;;;;;;;5.03;3.95;;;10.20;88.40;;;;;;4960687;28;20141;-64
2023/04/16 10:38:31;;;;;;;4.35;3.95;;;10.20;88.50;;;;;;4960558;28;20503;-64
2023/04/16 10:41:05;;;;;;;4.43;4.03;;;10.20;88.30;;;;;;4961031;28;20034;-65
2023/04/16 10:43:32;;;;;;;4.40;4.00;;;10.30;88.60;;;;;;4959341;28;20102;-65
2023/04/16 10:46:30;;;;;;;5.78;3.97;;;10.30;88.10;;;;;;4959022;28;20073;-65
2023/04/16 10:49:00;;;;;;;4.22;3.83;;;10.20;88.60;;;;;;4959453;28;20531;-65
2023/04/16 10:51:27;;;;;;;6.88;4.43;;;10.20;88.10;;;;;;4958342;28;20035;-65
2023/04/16 10:54:01;;;;;;;9.68;5.55;;;10.20;87.70;;;;;;4957986;28;20031;-66
2023/04/16 10:56:26;;;;;;;6.60;4.88;;;10.30;87.90;;;;;;4958918;28;20503;-65
2023/04/16 10:58:56;;;;;;;5.57;4.65;;;10.30;88.10;;;;;;4957756;28;20047;-65
2023/04/16 11:01:57;;;;;;;5.55;4.72;;;10.30;88.40;;;;;;4958448;28;20039;-66
2023/04/16 11:04:33;;;;;;;6.32;4.75;;;10.30;89.20;;;;;;4937768;28;20082;-65
2023/04/16 11:07:14;;;;;;;5.85;4.80;;;10.30;88.30;;;;;;4958890;28;20039;-65
2023/04/16 11:09:53;;;;;;;6.22;5.20;;;10.30;88.80;;;;;;4957701;28;20071;-65
2023/04/16 11:12:40;;;;;;;4.90;4.10;;;10.30;89.50;;;;;;4960828;28;20578;-65
2023/04/16 11:15:11;;;;;;;4.35;3.95;;;10.30;89.00;;;;;;4960384;28;20047;-65
2023/04/16 11:17:46;;;;;;;5.25;4.43;;;10.30;88.00;;;;;;4958518;28;20050;-65
2023/04/16 11:20:27;;;;;;;5.82;4.68;;;10.30;87.80;;;;;;4959754;28;20410;-65
2023/04/16 11:22:54;;;;;;;6.03;5.10;;;10.30;88.80;;;;;;4958854;28;20034;-65
2023/04/16 11:25:21;;;;;;;6.65;5.03;;;10.30;88.10;;;;;;4957935;28;20035;-65
2023/04/16 11:27:47;;;;;;;6.85;5.35;;;10.30;88.30;;;;;;4958390;28;20050;-65
2023/04/16 11:30:12;;;;;;;7.05;5.43;;;10.30;88.40;;;;;;4957907;28;20035;-65
2023/04/16 11:32:38;;;;;;;6.35;5.25;;;10.30;88.40;;;;;;4956492;28;20031;-66
2023/04/16 11:35:12;;;;;;;6.72;5.45;;;10.30;88.60;;;;;;4958420;28;20503;-65
2023/04/16 11:37:37;;;;;;;6.32;5.63;;;10.40;88.10;;;;;;4956936;28;20706;-65
2023/04/16 11:40:08;;;;;;;7.45;5.50;;;10.30;87.80;;;;;;4959236;28;20034;-65
2023/04/16 11:42:41;;;;;;;9.63;5.70;;;10.40;88.00;;;;;;4958533;28;20031;-65
2023/04/16 11:45:08;;;;;;;5.45;4.85;;;10.40;87.80;;;;;;4958496;28;20051;-65
2023/04/16 11:47:44;;;;;;;6.50;5.53;;;10.40;87.70;;;;;;4957946;28;20046;-65
2023/04/16 11:50:27;;;;;;;5.90;4.93;;;10.50;87.90;;;;;;4958703;28;20522;-65
2023/04/16 11:52:55;;;;;;;5.90;4.60;;;10.50;88.10;;;;;;4957347;28;20053;-65
2023/04/16 11:55:22;;;;;;;5.45;4.45;;;10.50;87.60;;;;;;4958920;28;20122;-64
2023/04/16 11:57:49;;;;;;;5.63;4.38;;;10.50;87.60;;;;;;4956302;28;20035;-65
2023/04/16 12:00:14;;;;;;;5.53;4.50;;;10.50;87.40;;;;;;4957750;28;20041;-65
2023/04/16 12:02:45;;;;;;;4.05;3.55;;;10.50;87.10;;;;;;4956383;28;20024;-65
2023/04/16 12:05:29;;;;;;;4.70;3.90;;;10.50;87.10;;;;;;4957543;28;20043;-65
2023/04/16 12:07:56;;;;;;;4.35;3.80;;;10.50;87.80;;;;;;4957285;28;20300;-65
2023/04/16 12:10:21;;;;;;;3.97;3.58;;;10.50;87.30;;;;;;4956942;28;20411;-65
2023/04/16 12:12:47;;;;;;;3.67;3.08;;;10.50;87.40;;;;;;4954142;28;20046;-65
2023/04/16 12:15:13;;;;;;;3.03;2.72;;;10.50;87.80;;;;;;4956096;28;20050;-65
2023/04/16 12:17:38;;;;;;;2.92;2.72;;;10.60;87.70;;;;;;4957964;28;20518;-65
2023/04/16 12:20:14;;;;;;;2.90;2.70;;;10.60;87.20;;;;;;4958400;28;20047;-65
2023/04/16 12:22:44;;;;;;;2.80;2.47;;;10.60;86.90;;;;;;4957432;28;20146;-65
2023/04/16 12:25:12;;;;;;;3.50;3.20;;;10.60;86.40;;;;;;4959683;28;20407;-65
2023/04/16 12:27:50;;;;;;;6.15;3.38;;;10.60;86.20;;;;;;4958825;28;20032;-65
2023/04/16 12:30:17;;;;;;;3.65;3.35;;;10.60;86.60;;;;;;4961626;28;20046;-65
2023/04/16 12:32:45;;;;;;;5.55;3.75;;;10.60;86.70;;;;;;4961028;28;20506;-65
2023/04/16 12:35:11;;;;;;;3.40;3.05;;;10.50;87.00;;;;;;4961764;28;20089;-65
2023/04/16 12:37:38;;;;;;;3.20;2.80;;;10.50;87.30;;;;;;4954048;28;20499;-65
2023/04/16 12:40:05;;;;;;;3.42;2.70;;;10.50;87.10;;;;;;4961731;28;20054;-65
2023/04/16 12:42:34;;;;;;;3.63;2.65;;;10.60;87.10;;;;;;4960897;28;20414;-65
2023/04/16 12:45:04;;;;;;;3.17;2.88;;;10.60;86.70;;;;;;4960837;28;20058;-65
2023/04/16 12:47:33;;;;;;;2.72;2.50;;;10.50;87.00;;;;;;4961739;28;20572;-65
2023/04/16 12:49:59;;;;;;;2.90;2.33;;;10.60;87.10;;;;;;4961131;28;20071;-65
2023/04/16 12:52:25;;;;;;;2.30;2.10;;;10.50;86.80;;;;;;4961187;28;20525;-65